Terminal Aerodrome Forecast
Issued by NWS Cleveland, OH

Home | Current Version | Previous Version | Text Only | Print | Product List | Glossary Off
Versions: 1 2 3 4 5 6 7 8 9 10 11 12 13 14 15 16 17 18 19 20 21 22

000
FTUS41 KCLE 120900 AAA
TAFTOL
TAF AMD
KTOL 120918Z 1209/1306 02006KT P6SM OVC035
      TEMPO 1209/1211 BKN022
     FM121500 04008KT P6SM BKN035
     FM121700 04007KT P6SM BKN050
     FM122100 05008KT P6SM BKN040
     FM130000 07008KT P6SM OVC050
     FM130400 07006KT P6SM -SHRA OVC035=

USA.gov is the U.S. government's official web portal to all federal, state and local government web resources and services.